Time;durP1;ratioP1;P1;durP2;ratioP2;P2;SDS_P1;SDS_P2;PMS_P1;PMS_P2;Temp;Humidity;BMP_temperature;BMP_pressure;BME280_temperature;BME280_humidity;BME280_pressure;Samples;Min_cycle;Max_cycle;Signal;HPM_P1;HPM_P2
2023/11/20 00:01:08;;;;;;;22.42;20.02;;;13.00;96.70;;;;;;5077827;28;20044;-73
2023/11/20 00:03:38;;;;;;;26.58;21.95;;;13.00;96.70;;;;;;5063574;28;20053;-73
2023/11/20 00:06:07;;;;;;;25.45;20.50;;;13.00;96.70;;;;;;5074754;28;20455;-74
2023/11/20 00:08:35;;;;;;;25.63;20.90;;;13.00;96.70;;;;;;5080804;28;20136;-74
2023/11/20 00:11:04;;;;;;;24.08;20.50;;;13.00;96.70;;;;;;5071147;28;20430;-74
2023/11/20 00:13:35;;;;;;;25.88;22.25;;;13.00;96.70;;;;;;5078946;28;20438;-72
2023/11/20 00:16:04;;;;;;;22.48;20.08;;;13.00;96.70;;;;;;5087190;28;20060;-73
2023/11/20 00:18:35;;;;;;;22.85;19.92;;;13.00;96.70;;;;;;5070361;28;20464;-70
2023/11/20 00:21:04;;;;;;;24.23;21.05;;;13.00;96.70;;;;;;5070147;28;20032;-70
2023/11/20 00:23:32;;;;;;;26.88;20.60;;;13.00;96.70;;;;;;5073882;28;20044;-65
2023/11/20 00:26:00;;;;;;;23.30;20.35;;;13.00;96.70;;;;;;5076567;28;20041;-69
2023/11/20 00:28:30;;;;;;;22.42;19.33;;;12.90;96.70;;;;;;5067852;28;21291;-69
2023/11/20 00:30:59;;;;;;;24.27;20.17;;;12.90;96.70;;;;;;5069620;28;20061;-70
2023/11/20 00:33:29;;;;;;;23.98;19.90;;;12.90;96.70;;;;;;5074248;28;20101;-70
2023/11/20 00:36:00;;;;;;;21.73;19.17;;;12.90;96.70;;;;;;5067611;28;20114;-69
2023/11/20 00:38:29;;;;;;;22.05;18.00;;;12.90;96.70;;;;;;5080305;28;20035;-67
2023/11/20 00:40:57;;;;;;;21.38;18.13;;;12.90;96.70;;;;;;5050634;28;20051;-69
2023/11/20 00:43:25;;;;;;;23.50;19.10;;;12.90;96.70;;;;;;5071666;28;20060;-69
2023/11/20 00:45:54;;;;;;;23.80;18.00;;;12.90;96.70;;;;;;5054063;28;20040;-69
2023/11/20 00:48:24;;;;;;;20.85;17.60;;;12.90;96.70;;;;;;5069022;28;20132;-69
2023/11/20 00:50:52;;;;;;;22.58;17.92;;;12.90;96.70;;;;;;5080172;28;20059;-68
2023/11/20 00:53:21;;;;;;;23.60;18.58;;;12.90;96.70;;;;;;5054330;28;20048;-69
2023/11/20 00:55:50;;;;;;;23.73;18.67;;;13.00;96.70;;;;;;5051475;28;20101;-69
2023/11/20 00:58:19;;;;;;;22.15;18.35;;;13.00;96.70;;;;;;5064323;28;20071;-69
2023/11/20 01:00:48;;;;;;;25.33;20.23;;;13.00;96.70;;;;;;5050897;28;20082;-70
2023/11/20 01:03:17;;;;;;;20.65;18.42;;;12.90;96.70;;;;;;5048937;28;20037;-69
2023/11/20 01:05:46;;;;;;;21.15;18.70;;;13.00;96.70;;;;;;5078983;28;20095;-69
2023/11/20 01:08:15;;;;;;;21.35;18.17;;;13.00;96.70;;;;;;5069238;28;20170;-69
2023/11/20 01:10:43;;;;;;;21.67;18.13;;;13.00;96.70;;;;;;5070237;28;20102;-69
2023/11/20 01:13:12;;;;;;;23.27;18.00;;;13.00;96.70;;;;;;5074843;28;20561;-68
2023/11/20 01:15:40;;;;;;;20.40;17.70;;;13.00;96.70;;;;;;5055457;28;20049;-69
2023/11/20 01:18:09;;;;;;;21.40;17.77;;;13.00;96.70;;;;;;5064095;28;20741;-68
2023/11/20 01:20:38;;;;;;;22.40;18.13;;;13.00;96.70;;;;;;5075562;28;20385;-69
2023/11/20 01:23:07;;;;;;;20.17;17.95;;;12.90;96.70;;;;;;5070220;28;20041;-69
2023/11/20 01:25:36;;;;;;;19.50;16.02;;;12.90;96.70;;;;;;5070930;28;20098;-69
2023/11/20 01:28:04;;;;;;;17.85;15.95;;;13.00;96.70;;;;;;5056654;28;20044;-69
2023/11/20 01:30:33;;;;;;;22.13;16.98;;;13.00;96.70;;;;;;5069731;28;20051;-68
2023/11/20 01:33:02;;;;;;;23.63;19.20;;;13.00;96.70;;;;;;5066792;28;20094;-66
2023/11/20 01:35:31;;;;;;;20.67;18.02;;;13.00;96.70;;;;;;5071474;28;20504;-69
2023/11/20 01:37:59;;;;;;;23.35;18.02;;;13.00;96.70;;;;;;5071658;28;20044;-69
2023/11/20 01:40:29;;;;;;;19.23;16.88;;;13.00;96.70;;;;;;5051819;28;20047;-69
2023/11/20 01:42:57;;;;;;;20.38;17.02;;;13.00;96.70;;;;;;5072777;28;20078;-70
2023/11/20 01:45:26;;;;;;;19.83;17.52;;;13.00;96.70;;;;;;5070562;28;20145;-68
2023/11/20 01:47:56;;;;;;;21.67;18.02;;;12.90;96.70;;;;;;5065772;28;20416;-69
2023/11/20 01:50:27;;;;;;;20.42;17.15;;;13.00;96.70;;;;;;5052342;28;20049;-70
2023/11/20 01:52:56;;;;;;;20.15;17.65;;;12.90;96.70;;;;;;5065297;28;20773;-70
2023/11/20 01:55:25;;;;;;;20.83;18.63;;;13.00;96.70;;;;;;5067583;28;20442;-70
2023/11/20 01:57:56;;;;;;;21.70;18.13;;;13.00;96.70;;;;;;5071145;28;20041;-68
2023/11/20 02:00:26;;;;;;;19.88;17.80;;;13.00;96.70;;;;;;5046586;28;20067;-70
2023/11/20 02:02:56;;;;;;;21.27;18.20;;;13.00;96.70;;;;;;5068842;28;20064;-69
2023/11/20 02:05:24;;;;;;;21.60;18.73;;;13.00;96.70;;;;;;5067877;28;20052;-69
2023/11/20 02:07:53;;;;;;;21.95;18.83;;;13.00;96.70;;;;;;5053297;28;20147;-68
2023/11/20 02:10:22;;;;;;;22.35;19.33;;;13.00;96.70;;;;;;5057563;28;20643;-70
2023/11/20 02:12:51;;;;;;;25.98;19.48;;;13.00;96.70;;;;;;5072566;28;20056;-69
2023/11/20 02:15:21;;;;;;;23.20;18.55;;;13.00;96.70;;;;;;5053073;28;20044;-69
2023/11/20 02:17:50;;;;;;;21.88;18.45;;;13.00;96.70;;;;;;5049126;28;20098;-69
2023/11/20 02:20:22;;;;;;;21.35;18.55;;;13.00;96.70;;;;;;5067198;28;20047;-69
2023/11/20 02:22:51;;;;;;;23.23;19.80;;;13.00;96.70;;;;;;5071789;28;20040;-70
2023/11/20 02:25:19;;;;;;;22.98;19.85;;;13.00;96.70;;;;;;5046361;28;20044;-67
2023/11/20 02:27:58;;;;;;;22.58;20.10;;;13.00;96.70;;;;;;5075251;28;20052;-69
2023/11/20 02:30:30;;;;;;;22.67;19.98;;;13.00;96.70;;;;;;5050311;28;20056;-69
2023/11/20 02:32:58;;;;;;;22.80;20.17;;;13.00;96.70;;;;;;5058539;28;20056;-69
2023/11/20 02:35:27;;;;;;;24.45;19.98;;;13.00;96.70;;;;;;5052566;28;20062;-68
2023/11/20 02:37:55;;;;;;;25.58;20.63;;;13.00;96.70;;;;;;5065590;28;20060;-69
2023/11/20 02:40:24;;;;;;;23.45;20.90;;;13.00;96.70;;;;;;5050681;28;20048;-69
2023/11/20 02:42:53;;;;;;;26.00;21.75;;;13.00;96.70;;;;;;5054506;28;20574;-69
2023/11/20 02:45:21;;;;;;;25.02;20.98;;;13.00;96.70;;;;;;5055324;28;20404;-68
2023/11/20 02:47:52;;;;;;;25.20;21.70;;;12.90;96.70;;;;;;5085125;28;20143;-68
2023/11/20 02:50:21;;;;;;;25.88;21.70;;;12.90;96.70;;;;;;5078179;28;20063;-70
2023/11/20 02:52:52;;;;;;;27.35;22.08;;;12.90;96.70;;;;;;5074611;28;20127;-69
2023/11/20 02:55:20;;;;;;;24.65;20.98;;;12.90;96.70;;;;;;5066582;28;20070;-69
2023/11/20 02:57:52;;;;;;;26.13;20.38;;;13.00;96.70;;;;;;5066899;28;20131;-69
2023/11/20 03:00:21;;;;;;;24.33;21.05;;;13.00;96.70;;;;;;5058122;28;20044;-68
2023/11/20 03:02:51;;;;;;;25.52;21.98;;;12.90;96.70;;;;;;5065044;28;20460;-69
2023/11/20 03:05:20;;;;;;;24.92;21.95;;;13.00;96.70;;;;;;5054870;28;20067;-69
2023/11/20 03:07:48;;;;;;;25.75;21.33;;;12.90;96.70;;;;;;5058229;28;20436;-69
2023/11/20 03:10:18;;;;;;;27.70;22.15;;;13.00;96.70;;;;;;5065798;28;20115;-67
2023/11/20 03:12:48;;;;;;;26.38;21.35;;;13.00;96.70;;;;;;5076286;28;20052;-69
2023/11/20 03:15:17;;;;;;;25.23;22.00;;;13.00;96.70;;;;;;5058482;28;20048;-69
2023/11/20 03:17:45;;;;;;;27.13;21.85;;;13.00;96.70;;;;;;5058482;28;20040;-69
2023/11/20 03:20:15;;;;;;;25.75;21.73;;;13.00;96.70;;;;;;5058011;28;20048;-69
2023/11/20 03:22:44;;;;;;;26.00;21.42;;;13.00;96.70;;;;;;5066619;28;20791;-69
2023/11/20 03:25:12;;;;;;;23.65;21.13;;;13.00;96.70;;;;;;5087160;28;20044;-69
2023/11/20 03:27:42;;;;;;;27.73;21.60;;;13.00;96.70;;;;;;5057843;28;20048;-69
2023/11/20 03:30:11;;;;;;;27.90;22.30;;;13.00;96.70;;;;;;5088428;28;20048;-69
2023/11/20 03:32:39;;;;;;;23.10;20.08;;;13.10;96.70;;;;;;5076762;28;20583;-69
2023/11/20 03:35:09;;;;;;;25.10;21.58;;;13.10;96.70;;;;;;5068550;28;20051;-69
2023/11/20 03:37:40;;;;;;;24.02;21.30;;;13.00;96.70;;;;;;5058777;28;20052;-69
2023/11/20 03:40:10;;;;;;;25.02;21.08;;;13.00;96.70;;;;;;5066651;28;20056;-69
2023/11/20 03:42:39;;;;;;;24.70;21.42;;;13.10;96.70;;;;;;5074133;28;20047;-70
2023/11/20 03:45:09;;;;;;;23.73;20.83;;;13.10;96.70;;;;;;5061283;28;20055;-69
2023/11/20 03:47:38;;;;;;;22.60;20.17;;;13.10;96.70;;;;;;5062250;28;20037;-69
2023/11/20 03:50:07;;;;;;;28.10;22.70;;;13.10;96.70;;;;;;5057368;28;20512;-69
2023/11/20 03:52:36;;;;;;;24.90;22.17;;;13.10;96.70;;;;;;5053621;28;20056;-69
2023/11/20 03:55:06;;;;;;;23.17;20.67;;;13.10;96.70;;;;;;5060483;28;20041;-69
2023/11/20 03:57:34;;;;;;;27.17;22.25;;;13.10;96.70;;;;;;5058883;28;20119;-69
2023/11/20 04:00:04;;;;;;;24.42;21.90;;;13.10;96.70;;;;;;5065262;28;20036;-67
2023/11/20 04:02:32;;;;;;;24.23;21.63;;;13.10;96.70;;;;;;5067225;28;20403;-67
2023/11/20 04:05:01;;;;;;;26.35;22.30;;;13.10;96.70;;;;;;5082790;28;20145;-69
2023/11/20 04:07:29;;;;;;;24.85;21.42;;;13.10;96.70;;;;;;5065072;28;20050;-69
2023/11/20 04:09:58;;;;;;;24.38;21.73;;;13.10;96.70;;;;;;5063270;28;20036;-69
2023/11/20 04:12:28;;;;;;;25.83;21.88;;;13.10;96.70;;;;;;5050726;28;20048;-69
2023/11/20 04:14:56;;;;;;;25.40;22.73;;;13.10;96.70;;;;;;5050886;28;20437;-69
2023/11/20 04:17:25;;;;;;;25.85;22.15;;;13.10;96.70;;;;;;5059055;28;20126;-69
2023/11/20 04:19:54;;;;;;;25.13;21.85;;;13.10;96.70;;;;;;5075800;28;20067;-69
2023/11/20 04:22:23;;;;;;;24.05;21.40;;;13.10;96.70;;;;;;5072036;28;20044;-69
2023/11/20 04:24:52;;;;;;;26.13;22.13;;;13.10;96.70;;;;;;5057084;28;20124;-69
2023/11/20 04:27:20;;;;;;;27.20;22.13;;;13.10;96.70;;;;;;5077465;28;20037;-68
2023/11/20 04:29:50;;;;;;;26.05;22.75;;;13.10;96.70;;;;;;5068455;28;20052;-70
2023/11/20 04:32:19;;;;;;;24.20;21.13;;;13.10;96.70;;;;;;5055720;28;20053;-69
2023/11/20 04:34:47;;;;;;;23.98;20.80;;;13.10;96.70;;;;;;5079227;28;20037;-69
2023/11/20 04:37:16;;;;;;;23.90;21.27;;;13.10;96.70;;;;;;5049995;28;20037;-69
2023/11/20 04:39:44;;;;;;;25.83;22.27;;;13.10;96.70;;;;;;5073859;28;20044;-70
2023/11/20 04:42:13;;;;;;;25.10;20.75;;;13.10;96.70;;;;;;5055387;28;20110;-70
2023/11/20 04:44:41;;;;;;;22.48;20.08;;;13.10;96.70;;;;;;5074230;28;20056;-70
2023/11/20 04:47:11;;;;;;;22.38;20.15;;;13.10;96.70;;;;;;5051999;28;20551;-71
2023/11/20 04:49:40;;;;;;;23.40;20.20;;;13.10;96.70;;;;;;5071742;28;20041;-70
2023/11/20 04:52:09;;;;;;;24.00;19.27;;;13.10;96.70;;;;;;5065497;28;20163;-69
2023/11/20 04:54:37;;;;;;;23.65;19.75;;;13.10;96.70;;;;;;5051732;28;20051;-68
2023/11/20 04:57:05;;;;;;;22.67;20.25;;;13.10;96.70;;;;;;5050348;28;20041;-69
2023/11/20 04:59:34;;;;;;;23.80;19.33;;;13.10;96.70;;;;;;5071737;28;20123;-69
2023/11/20 05:02:02;;;;;;;22.00;19.65;;;13.10;96.70;;;;;;5060800;28;20044;-67
2023/11/20 05:04:32;;;;;;;22.38;19.73;;;13.10;96.70;;;;;;5070247;28;20055;-70
2023/11/20 05:07:01;;;;;;;21.08;18.85;;;13.10;96.70;;;;;;5067713;28;20049;-68
2023/11/20 05:09:29;;;;;;;25.02;18.75;;;13.10;96.70;;;;;;5075436;28;20047;-70
2023/11/20 05:12:00;;;;;;;20.13;17.83;;;13.10;96.70;;;;;;5061056;28;20049;-69
2023/11/20 05:14:28;;;;;;;21.00;18.63;;;13.10;96.70;;;;;;5076957;28;20045;-69
2023/11/20 05:16:56;;;;;;;20.02;17.90;;;13.10;96.70;;;;;;5081150;28;20040;-69
2023/11/20 05:19:25;;;;;;;21.00;18.83;;;13.10;96.70;;;;;;5067395;28;20041;-69
2023/11/20 05:21:54;;;;;;;21.77;18.60;;;13.10;96.70;;;;;;5068015;28;20484;-70
2023/11/20 05:24:24;;;;;;;20.17;17.40;;;13.10;96.70;;;;;;5072853;28;20985;-69
2023/11/20 05:26:52;;;;;;;19.45;17.13;;;13.10;96.70;;;;;;5061322;28;20049;-69
2023/11/20 05:29:21;;;;;;;22.80;18.17;;;13.10;96.70;;;;;;5060296;28;20121;-70
2023/11/20 05:31:49;;;;;;;23.75;18.65;;;13.10;96.70;;;;;;5061981;28;20037;-69
2023/11/20 05:34:19;;;;;;;20.35;17.33;;;13.10;96.70;;;;;;5066346;28;20049;-69
2023/11/20 05:36:47;;;;;;;19.30;17.23;;;13.10;96.70;;;;;;5049186;28;20045;-69
2023/11/20 05:39:18;;;;;;;20.20;17.65;;;13.00;96.70;;;;;;5065231;28;20038;-69
2023/11/20 05:41:47;;;;;;;19.98;17.80;;;13.00;96.70;;;;;;5070950;28;20103;-69
2023/11/20 05:44:15;;;;;;;21.80;17.77;;;13.00;96.70;;;;;;5063187;28;20156;-70
2023/11/20 05:46:44;;;;;;;19.27;17.23;;;13.00;96.70;;;;;;5087074;28;20105;-69
2023/11/20 05:49:12;;;;;;;21.35;17.15;;;13.00;96.70;;;;;;5067983;28;20064;-69
2023/11/20 05:51:42;;;;;;;21.17;17.73;;;13.00;96.70;;;;;;5087695;28;20044;-69
2023/11/20 05:54:10;;;;;;;19.65;16.95;;;13.00;96.70;;;;;;5076682;28;20045;-69
2023/11/20 05:56:41;;;;;;;18.90;16.33;;;13.00;96.70;;;;;;5050491;28;20427;-69
2023/11/20 05:59:10;;;;;;;17.75;15.85;;;13.00;96.70;;;;;;5050964;28;20049;-69
2023/11/20 06:01:40;;;;;;;20.30;15.60;;;13.00;96.70;;;;;;5072150;28;20725;-69
2023/11/20 06:04:09;;;;;;;20.25;16.20;;;13.00;96.70;;;;;;5064708;28;20159;-69
2023/11/20 06:06:38;;;;;;;21.90;15.85;;;13.00;96.70;;;;;;5077161;28;20037;-69
2023/11/20 06:09:10;;;;;;;17.35;15.25;;;13.00;96.70;;;;;;5054580;28;20045;-69
2023/11/20 06:11:43;;;;;;;20.00;14.82;;;13.00;96.70;;;;;;5058500;28;20037;-69
2023/11/20 06:14:12;;;;;;;17.60;14.85;;;13.00;96.70;;;;;;5058096;28;20128;-76
2023/11/20 06:16:40;;;;;;;15.65;14.00;;;13.00;96.70;;;;;;5056256;28;20416;-69
2023/11/20 06:19:08;;;;;;;16.50;14.68;;;13.00;96.70;;;;;;5060441;28;20040;-69
2023/11/20 06:21:45;;;;;;;18.85;15.25;;;13.00;96.70;;;;;;5057935;28;20115;-69
2023/11/20 06:24:15;;;;;;;;;;;13.00;96.70;;;;;;5083647;28;20068;-69
2023/11/20 06:26:45;;;;;;;16.50;13.52;;;13.00;96.70;;;;;;5056040;28;19985;-69
2023/11/20 06:29:14;;;;;;;17.48;14.43;;;13.00;96.70;;;;;;5064846;28;20074;-69
2023/11/20 06:31:42;;;;;;;15.95;14.13;;;13.00;96.70;;;;;;5069688;28;20041;-69
2023/11/20 06:34:10;;;;;;;17.10;13.68;;;13.10;96.70;;;;;;5063896;28;20592;-70
2023/11/20 06:36:39;;;;;;;17.10;13.32;;;13.00;96.70;;;;;;5066809;28;20045;-69
2023/11/20 06:39:07;;;;;;;17.65;14.00;;;13.10;96.70;;;;;;5082868;28;20039;-70
2023/11/20 06:41:37;;;;;;;19.00;14.05;;;13.10;96.70;;;;;;5065846;28;20130;-70
2023/11/20 06:44:07;;;;;;;15.82;14.02;;;13.10;96.70;;;;;;5060071;28;20706;-70
2023/11/20 06:46:36;;;;;;;18.85;14.48;;;13.10;96.70;;;;;;5055197;28;20053;-69
2023/11/20 06:49:04;;;;;;;15.95;13.73;;;13.10;96.70;;;;;;5073142;28;20094;-70
2023/11/20 06:51:33;;;;;;;14.90;13.30;;;13.10;96.70;;;;;;5076123;28;20078;-69
2023/11/20 06:54:01;;;;;;;16.67;13.13;;;13.10;96.70;;;;;;5068151;28;20080;-70
2023/11/20 06:56:31;;;;;;;18.17;13.15;;;13.10;96.70;;;;;;5077101;28;20109;-70
2023/11/20 06:59:01;;;;;;;16.25;13.70;;;13.20;96.70;;;;;;5067845;28;20052;-70
2023/11/20 07:01:31;;;;;;;14.43;12.93;;;13.10;96.70;;;;;;5067863;28;20098;-70
2023/11/20 07:03:59;;;;;;;15.82;13.18;;;13.10;96.70;;;;;;5076576;28;20404;-69
2023/11/20 07:06:28;;;;;;;16.20;13.30;;;13.20;96.70;;;;;;5078510;28;21265;-69
2023/11/20 07:08:56;;;;;;;15.27;11.75;;;13.20;96.70;;;;;;5073105;28;20117;-70
2023/11/20 07:11:26;;;;;;;15.90;12.82;;;13.20;96.70;;;;;;5076138;28;20047;-70
2023/11/20 07:13:56;;;;;;;14.88;12.68;;;13.20;96.70;;;;;;5067562;28;20041;-69
2023/11/20 07:16:24;;;;;;;15.82;12.90;;;13.20;96.70;;;;;;5066781;28;20040;-70
2023/11/20 07:18:54;;;;;;;17.10;12.98;;;13.30;96.70;;;;;;5067447;28;20040;-70
2023/11/20 07:21:27;;;;;;;15.68;12.23;;;13.30;96.70;;;;;;5072967;28;20048;-70
2023/11/20 07:23:55;;;;;;;14.25;12.23;;;13.30;96.70;;;;;;5067479;28;20045;-69
2023/11/20 07:26:25;;;;;;;14.52;12.00;;;13.40;96.70;;;;;;5073145;28;20395;-69
2023/11/20 07:28:53;;;;;;;14.57;12.02;;;13.40;96.70;;;;;;5070741;28;20132;-70
2023/11/20 07:31:25;;;;;;;14.40;12.20;;;13.40;96.70;;;;;;5084020;28;20037;-69
2023/11/20 07:33:56;;;;;;;15.32;11.82;;;13.40;96.70;;;;;;5068400;28;20143;-69
2023/11/20 07:36:25;;;;;;;16.73;12.48;;;13.40;96.70;;;;;;5077905;28;20127;-69
2023/11/20 07:38:53;;;;;;;19.90;13.50;;;13.50;96.70;;;;;;5081796;28;20526;-69
2023/11/20 07:41:22;;;;;;;15.82;14.23;;;13.60;96.70;;;;;;5078072;28;20062;-69
2023/11/20 07:43:51;;;;;;;19.40;15.40;;;13.60;96.70;;;;;;5083243;28;21428;-70
2023/11/20 07:46:19;;;;;;;19.23;15.50;;;13.70;96.70;;;;;;5077336;28;20052;-73
2023/11/20 07:49:15;;;;;;;18.50;13.98;;;13.80;96.70;;;;;;5073936;28;20048;-81
2023/11/20 07:51:44;;;;;;;16.30;13.05;;;13.80;96.70;;;;;;5067567;28;20095;-75
2023/11/20 07:54:16;;;;;;;15.63;13.00;;;13.90;96.70;;;;;;5078677;28;20040;-77
2023/11/20 07:56:55;;;;;;;16.80;13.95;;;13.90;96.70;;;;;;5074691;28;20055;-77
2023/11/20 07:59:24;;;;;;;16.13;14.18;;;14.00;96.70;;;;;;5083099;28;20610;-76
2023/11/20 08:01:52;;;;;;;18.85;14.95;;;14.10;96.70;;;;;;5077761;28;20496;-76
2023/11/20 08:04:22;;;;;;;16.77;13.95;;;14.10;96.70;;;;;;5064568;28;20048;-74
2023/11/20 08:06:51;;;;;;;16.85;15.05;;;14.20;96.70;;;;;;5078018;28;20120;-75
2023/11/20 08:09:20;;;;;;;17.70;14.88;;;14.30;96.70;;;;;;5081309;28;20090;-76
2023/11/20 08:11:49;;;;;;;15.68;13.77;;;14.30;96.70;;;;;;5082280;28;20040;-78
2023/11/20 08:14:18;;;;;;;18.25;15.15;;;14.40;96.70;;;;;;5074287;28;20111;-72
2023/11/20 08:16:47;;;;;;;17.75;14.55;;;14.40;96.70;;;;;;5081800;28;20040;-72
2023/11/20 08:19:16;;;;;;;21.35;16.00;;;14.60;96.70;;;;;;5079386;28;20419;-68
2023/11/20 08:21:46;;;;;;;18.20;14.80;;;14.60;96.70;;;;;;5070028;28;20071;-68
2023/11/20 08:24:14;;;;;;;16.95;14.05;;;14.70;96.70;;;;;;5080941;28;20072;-69
2023/11/20 08:26:43;;;;;;;18.95;14.63;;;14.70;96.70;;;;;;5082735;28;20036;-73
2023/11/20 08:29:12;;;;;;;18.50;14.35;;;14.80;96.70;;;;;;5081042;28;20752;-72
2023/11/20 08:31:42;;;;;;;20.35;14.82;;;14.90;96.70;;;;;;5080798;28;20495;-71
2023/11/20 08:34:10;;;;;;;16.95;14.52;;;15.00;96.70;;;;;;5070404;28;20052;-72
2023/11/20 08:36:39;;;;;;;18.35;14.45;;;14.90;96.70;;;;;;5068588;28;20052;-71
2023/11/20 08:39:12;;;;;;;17.95;14.63;;;14.90;96.70;;;;;;5079468;28;20041;-70
2023/11/20 08:41:42;;;;;;;17.50;14.65;;;15.00;96.70;;;;;;5077366;28;20064;-70
2023/11/20 08:44:12;;;;;;;17.23;15.10;;;15.20;96.70;;;;;;5071658;28;20044;-73
2023/11/20 08:46:40;;;;;;;16.20;13.48;;;15.30;96.70;;;;;;5080576;28;20044;-73
2023/11/20 08:49:10;;;;;;;11.70;10.20;;;15.50;96.70;;;;;;5065168;28;20556;-73
2023/11/20 08:51:39;;;;;;;12.48;9.20;;;15.60;96.70;;;;;;5055357;28;20037;-73
2023/11/20 08:54:20;;;;;;;11.55;7.75;;;15.60;96.70;;;;;;5053080;28;20037;-74
2023/11/20 08:56:51;;;;;;;10.48;7.72;;;15.70;96.70;;;;;;5076439;28;20040;-74
2023/11/20 08:59:19;;;;;;;9.40;7.55;;;15.90;96.70;;;;;;5073858;28;20049;-70
2023/11/20 09:01:48;;;;;;;10.57;7.45;;;16.00;96.70;;;;;;5076129;28;20040;-69
2023/11/20 09:04:16;;;;;;;9.20;6.45;;;16.10;96.70;;;;;;5063940;28;20102;-69
2023/11/20 09:06:45;;;;;;;9.60;7.00;;;16.10;96.70;;;;;;5066421;28;20053;-70
2023/11/20 09:09:13;;;;;;;12.10;6.95;;;16.20;96.70;;;;;;5060749;28;20059;-71
2023/11/20 09:11:44;;;;;;;10.23;6.70;;;16.30;96.70;;;;;;5049864;28;20057;-70
2023/11/20 09:14:14;;;;;;;9.93;6.57;;;16.40;96.70;;;;;;5060211;28;20127;-69
2023/11/20 09:16:43;;;;;;;11.80;6.55;;;16.50;96.70;;;;;;5059116;28;20052;-70
2023/11/20 09:19:12;;;;;;;8.18;6.47;;;16.60;96.70;;;;;;5062115;28;20040;-69
2023/11/20 09:21:40;;;;;;;8.25;6.28;;;16.60;96.70;;;;;;5059763;28;20044;-69
2023/11/20 09:24:09;;;;;;;12.18;5.60;;;16.70;96.70;;;;;;5066365;28;20465;-71
2023/11/20 09:26:41;;;;;;;8.85;5.85;;;16.60;96.70;;;;;;5088168;28;20058;-70
2023/11/20 09:29:11;;;;;;;9.27;6.10;;;16.70;96.70;;;;;;5067110;28;20045;-70
2023/11/20 09:31:41;;;;;;;11.73;5.75;;;16.80;96.70;;;;;;5072405;28;20610;-69
2023/11/20 09:34:11;;;;;;;9.52;6.10;;;16.70;96.70;;;;;;5087601;28;20036;-70
2023/11/20 09:36:40;;;;;;;9.73;5.82;;;16.70;96.70;;;;;;5056005;28;20048;-70
2023/11/20 09:39:09;;;;;;;8.50;5.65;;;16.80;96.70;;;;;;5081888;28;20073;-70
2023/11/20 09:41:43;;;;;;;8.60;5.90;;;16.80;96.70;;;;;;5073984;28;20127;-71
2023/11/20 09:44:14;;;;;;;8.68;5.18;;;16.90;96.70;;;;;;5063115;28;20054;-70
2023/11/20 09:46:44;;;;;;;8.05;5.10;;;16.90;96.70;;;;;;5086417;28;20066;-70
2023/11/20 09:49:21;;;;;;;8.93;5.30;;;17.00;96.70;;;;;;5061840;28;20052;-69
2023/11/20 09:51:52;;;;;;;9.07;4.72;;;17.20;96.70;;;;;;5070629;28;20045;-68
2023/11/20 09:54:21;;;;;;;10.35;4.93;;;17.20;96.70;;;;;;5055675;28;20099;-69
2023/11/20 09:56:50;;;;;;;11.05;4.65;;;17.30;96.70;;;;;;5049157;28;20068;-69
2023/11/20 09:59:20;;;;;;;11.05;5.65;;;17.30;96.70;;;;;;5067520;28;20063;-67
2023/11/20 10:01:49;;;;;;;9.70;5.43;;;17.40;96.70;;;;;;5076065;28;20047;-66
2023/11/20 10:04:19;;;;;;;8.45;4.95;;;17.50;96.70;;;;;;5067982;28;20064;-67
2023/11/20 10:06:49;;;;;;;6.03;4.20;;;17.50;96.70;;;;;;5070516;28;20043;-71
2023/11/20 10:09:18;;;;;;;10.27;4.68;;;17.50;96.70;;;;;;5065712;28;20523;-71
2023/11/20 10:11:48;;;;;;;7.78;5.05;;;17.50;96.70;;;;;;5048861;28;20475;-70
2023/11/20 10:14:19;;;;;;;8.43;4.68;;;17.70;96.70;;;;;;5066731;28;20122;-70
2023/11/20 10:16:51;;;;;;;6.65;4.68;;;17.80;96.70;;;;;;5056562;28;20041;-66
2023/11/20 10:19:19;;;;;;;7.45;4.57;;;17.90;96.70;;;;;;5049885;28;20053;-68
2023/11/20 10:21:48;;;;;;;8.85;5.07;;;17.80;96.70;;;;;;5064634;28;20047;-67
2023/11/20 10:24:17;;;;;;;7.47;4.57;;;17.90;96.70;;;;;;5067759;28;20551;-67
2023/11/20 10:26:46;;;;;;;8.52;4.68;;;17.90;96.70;;;;;;5075013;28;20052;-67
2023/11/20 10:29:15;;;;;;;8.82;4.55;;;18.00;96.70;;;;;;5062829;28;20508;-68
2023/11/20 10:31:44;;;;;;;8.00;4.50;;;18.10;96.70;;;;;;5072663;28;20136;-68
2023/11/20 10:34:17;;;;;;;9.48;4.50;;;18.00;96.70;;;;;;5073839;28;20127;-67
2023/11/20 10:37:08;;;;;;;8.80;3.97;;;18.10;96.70;;;;;;5067055;28;20044;-67
2023/11/20 10:39:39;;;;;;;7.63;4.43;;;18.20;96.70;;;;;;5067043;28;20076;-67
2023/11/20 10:42:09;;;;;;;9.88;4.53;;;18.20;96.70;;;;;;5064885;28;20120;-67
2023/11/20 10:44:38;;;;;;;11.70;7.45;;;18.30;96.70;;;;;;5067690;28;20067;-67
2023/11/20 10:47:07;;;;;;;10.55;7.35;;;18.20;96.70;;;;;;5068574;28;20080;-67
2023/11/20 10:49:39;;;;;;;12.55;8.18;;;18.20;96.70;;;;;;5070860;28;20119;-67
2023/11/20 10:52:25;;;;;;;10.13;7.50;;;18.20;96.70;;;;;;5076386;28;20052;-67
2023/11/20 10:54:57;;;;;;;12.35;8.38;;;18.20;96.70;;;;;;5078601;28;20094;-67
2023/11/20 10:57:28;;;;;;;13.93;8.93;;;18.10;96.70;;;;;;5066690;28;20119;-67
2023/11/20 11:00:07;;;;;;;12.70;7.95;;;18.20;96.70;;;;;;5068016;28;20056;-67
2023/11/20 11:02:38;;;;;;;13.05;8.32;;;18.20;96.70;;;;;;5075176;28;20070;-67
2023/11/20 11:05:10;;;;;;;12.57;8.07;;;18.30;96.70;;;;;;5076960;28;20032;-67
2023/11/20 11:07:39;;;;;;;11.02;7.38;;;18.50;96.70;;;;;;5067973;28;20427;-67
2023/11/20 11:10:14;;;;;;;10.57;7.50;;;18.50;96.70;;;;;;5074014;28;20090;-67
2023/11/20 11:12:45;;;;;;;14.52;7.20;;;18.60;96.70;;;;;;5076270;28;20094;-67
2023/11/20 11:15:14;;;;;;;12.70;7.20;;;18.70;96.70;;;;;;5073814;28;20046;-68
2023/11/20 11:17:47;;;;;;;11.13;6.97;;;18.70;96.70;;;;;;5084249;28;20122;-68
2023/11/20 11:20:23;;;;;;;13.02;6.72;;;18.80;96.70;;;;;;5075098;28;20086;-69
2023/11/20 11:22:56;;;;;;;10.27;6.25;;;18.80;96.70;;;;;;5068132;28;20545;-68
2023/11/20 11:25:28;;;;;;;10.13;6.78;;;18.90;96.70;;;;;;5070256;28;20056;-69
2023/11/20 11:27:57;;;;;;;12.35;6.68;;;19.00;96.70;;;;;;5053083;28;20542;-69
2023/11/20 11:30:31;;;;;;;11.23;6.28;;;19.10;96.70;;;;;;5069966;28;20044;-72
2023/11/20 11:33:18;;;;;;;8.73;6.22;;;19.20;96.70;;;;;;5061262;28;20040;-71
2023/11/20 11:36:17;;;;;;;9.68;6.35;;;19.30;96.70;;;;;;5073899;28;20407;-71
2023/11/20 11:38:58;;;;;;;12.05;7.03;;;19.40;96.70;;;;;;5074950;28;20040;-75
2023/11/20 11:41:40;;;;;;;9.55;5.47;;;19.50;96.70;;;;;;5090970;28;20028;-75
2023/11/20 11:44:16;;;;;;;11.05;6.50;;;19.60;96.70;;;;;;5065388;28;20036;-75
2023/11/20 11:46:49;;;;;;;12.30;5.75;;;19.60;96.70;;;;;;5076732;28;20044;-70
2023/11/20 11:49:19;;;;;;;9.57;6.05;;;19.70;96.70;;;;;;5077171;28;20052;-70
2023/11/20 11:51:51;;;;;;;14.38;6.50;;;19.80;96.70;;;;;;5070785;28;20036;-69
2023/11/20 11:54:20;;;;;;;9.40;5.65;;;19.90;96.70;;;;;;5062316;28;20055;-70
2023/11/20 11:57:00;;;;;;;10.10;5.78;;;20.00;96.70;;;;;;5083198;28;20040;-69
2023/11/20 11:59:36;;;;;;;11.30;5.68;;;20.10;96.70;;;;;;5074139;28;20399;-70
2023/11/20 12:02:05;;;;;;;11.15;5.03;;;20.30;96.70;;;;;;5078268;28;20119;-70
2023/11/20 12:05:07;;;;;;;8.93;5.30;;;20.50;96.70;;;;;;5061799;28;20419;-70
2023/11/20 12:08:09;;;;;;;9.38;4.63;;;20.70;96.70;;;;;;5028554;28;20128;-76
2023/11/20 12:10:46;;;;;;;8.20;3.95;;;20.80;96.70;;;;;;4970464;28;20061;-74
2023/11/20 12:13:17;;;;;;;;;;;20.90;96.70;;;;;;5069417;28;20048;-75
2023/11/20 12:15:47;;;;;;;7.20;2.50;;;21.00;96.70;;;;;;5095597;28;20419;-73
2023/11/20 12:18:21;;;;;;;5.03;1.73;;;21.00;96.70;;;;;;5052500;28;20117;-75
2023/11/20 12:21:04;;;;;;;6.15;1.98;;;21.10;96.70;;;;;;5066680;28;20114;-74
2023/11/20 12:23:35;;;;;;;8.25;2.45;;;20.90;96.70;;;;;;5061984;28;20047;-72
2023/11/20 12:26:06;;;;;;;6.63;1.70;;;20.60;96.70;;;;;;5062758;28;20032;-74
2023/11/20 12:28:36;;;;;;;4.20;1.83;;;20.40;96.70;;;;;;5071401;28;20047;-74
2023/11/20 12:31:06;;;;;;;4.97;1.60;;;20.30;96.70;;;;;;5077208;28;20461;-74
2023/11/20 12:33:35;;;;;;;6.13;2.38;;;20.30;96.70;;;;;;5089879;28;20036;-74
2023/11/20 12:36:05;;;;;;;7.47;3.55;;;20.40;96.70;;;;;;5079918;28;20048;-75
2023/11/20 12:38:37;;;;;;;10.77;4.13;;;20.30;96.70;;;;;;5079799;28;20093;-75
2023/11/20 12:41:08;;;;;;;10.10;5.35;;;20.20;96.70;;;;;;5079970;28;20466;-74
2023/11/20 12:43:37;;;;;;;5.32;2.40;;;20.40;96.70;;;;;;5078539;28;20052;-74
2023/11/20 12:46:12;;;;;;;6.93;2.05;;;20.30;96.70;;;;;;5071304;28;20087;-74
2023/11/20 12:48:40;;;;;;;5.40;1.80;;;20.40;96.70;;;;;;5071163;28;20103;-74